Aviation Digital Data Service (ADDS)

Output produced by METARs form (1257 UTC 15 November 2018)
found at http://www.aviationweather.gov/metar/data/
 
VGEG 151200Z 00000KT 3500 HZ FEW120 SCT300 26/18 Q1011 NOSIG
TAF VGEG 151100Z 1512/1618 06006KT 4000 HZ FEW018 
     BECMG 1515/1517 00000KT 4000 HZ FEW018 
     TEMPO 1522/1602 00000KT 1800 BR SCT014 
     BECMG 1603/1605 36007KT 4500 HZ FEW018 
     BECMG 1613/1615 00000KT 4000 HZ FEW018